createdAt,value
2019-02-02T00:02:15.590Z,99.22
2019-02-02T00:05:20.789Z,99.26
2019-02-02T00:08:26.028Z,99.20
2019-02-02T00:11:31.244Z,99.30
2019-02-02T00:14:36.360Z,99.34
2019-02-02T00:17:41.570Z,99.42
2019-02-02T00:20:46.679Z,99.34
2019-02-02T00:23:51.840Z,99.28
2019-02-02T00:26:57.031Z,99.33
2019-02-02T00:30:02.122Z,99.34
2019-02-02T00:33:08.408Z,99.42
2019-02-02T00:36:13.498Z,99.40
2019-02-02T00:39:18.674Z,99.15
2019-02-02T00:42:23.849Z,98.91
2019-02-02T00:45:29.008Z,98.38
2019-02-02T00:48:34.205Z,98.06
2019-02-02T00:51:39.369Z,98.26
2019-02-02T00:54:44.564Z,98.42
2019-02-02T00:57:53.935Z,98.56
2019-02-02T01:00:56.633Z,98.80
2019-02-02T01:04:01.837Z,98.94
2019-02-02T01:07:07.098Z,99.09
2019-02-02T01:10:16.557Z,99.11
2019-02-02T01:13:21.682Z,99.37
2019-02-02T01:16:26.797Z,99.40
2019-02-02T01:19:32.049Z,99.49
2019-02-02T01:22:37.304Z,99.38
2019-02-02T01:25:42.456Z,99.32
2019-02-02T01:28:47.592Z,99.22
2019-02-02T01:31:52.765Z,98.95
2019-02-02T01:34:57.948Z,98.83
2019-02-02T01:38:03.172Z,98.44
2019-02-02T01:41:08.306Z,98.15
2019-02-02T01:44:13.583Z,98.30
2019-02-02T01:47:18.661Z,98.57
2019-02-02T01:50:24.952Z,98.97
2019-02-02T01:53:30.097Z,99.18
2019-02-02T01:56:35.309Z,99.09
2019-02-02T01:59:40.519Z,98.93
2019-02-02T02:02:45.620Z,99.05
2019-02-02T02:05:50.773Z,99.14
2019-02-02T02:08:55.936Z,99.00
2019-02-02T02:12:01.059Z,98.65
2019-02-02T02:15:08.025Z,98.81
2019-02-02T02:18:13.183Z,98.86
2019-02-02T02:21:18.414Z,98.73
2019-02-02T02:24:23.611Z,98.76
2019-02-02T02:27:28.718Z,99.06
2019-02-02T02:30:33.802Z,99.18
2019-02-02T02:33:39.030Z,99.44
2019-02-02T02:36:44.218Z,99.61
2019-02-02T02:39:49.398Z,99.65
2019-02-02T02:42:54.788Z,99.80
2019-02-02T02:45:59.885Z,99.71
2019-02-02T02:49:04.993Z,99.68
2019-02-02T02:52:10.286Z,99.65
2019-02-02T02:55:15.936Z,99.48
2019-02-02T02:58:22.758Z,99.43
2019-02-02T03:01:27.917Z,99.27
2019-02-02T03:04:33.097Z,99.03
2019-02-02T03:07:39.283Z,99.19
2019-02-02T03:10:44.440Z,99.29
2019-02-02T03:13:52.435Z,99.55
2019-02-02T03:16:57.539Z,99.70
2019-02-02T03:20:02.731Z,99.91
2019-02-02T03:23:07.847Z,100.00
2019-02-02T03:26:13.006Z,100.00
2019-02-02T03:29:18.219Z,100.00
2019-02-02T03:32:23.319Z,100.00
2019-02-02T03:35:28.473Z,100.00
2019-02-02T03:38:33.608Z,100.00
2019-02-02T03:41:38.986Z,100.00
2019-02-02T03:44:44.158Z,100.00
2019-02-02T03:47:51.315Z,100.00
2019-02-02T03:50:56.405Z,100.00
2019-02-02T03:54:08.879Z,100.00
2019-02-02T03:57:08.509Z,100.00
2019-02-02T04:00:15.941Z,100.00
2019-02-02T04:03:21.148Z,100.00
2019-02-02T04:06:26.240Z,100.00
2019-02-02T04:09:31.508Z,100.00
2019-02-02T04:12:36.600Z,100.00
2019-02-02T04:15:41.745Z,100.00
2019-02-02T04:18:46.902Z,100.00
2019-02-02T04:21:52.133Z,100.00
2019-02-02T04:24:57.231Z,100.00
2019-02-02T04:28:02.359Z,100.00
2019-02-02T04:31:07.531Z,100.00
2019-02-02T04:34:12.688Z,100.00
2019-02-02T04:37:17.805Z,99.93
2019-02-02T04:40:23.004Z,98.82
2019-02-02T04:43:28.170Z,98.10
2019-02-02T04:46:33.272Z,98.25
2019-02-02T04:49:38.454Z,98.82
2019-02-02T04:52:43.567Z,99.35
2019-02-02T04:55:48.719Z,99.98
2019-02-02T04:58:53.842Z,100.00
2019-02-02T05:01:58.947Z,99.84
2019-02-02T05:05:05.136Z,100.00
2019-02-02T05:08:10.240Z,100.00
2019-02-02T05:11:15.422Z,100.00
2019-02-02T05:14:20.551Z,100.00
2019-02-02T05:17:25.633Z,99.75
2019-02-02T05:20:30.781Z,99.76
2019-02-02T05:23:35.956Z,100.00
2019-02-02T05:26:41.166Z,100.00
2019-02-02T05:29:46.222Z,100.00
2019-02-02T05:32:51.370Z,100.00
2019-02-02T05:35:56.488Z,100.00
2019-02-02T05:39:01.713Z,100.00
2019-02-02T05:42:08.561Z,100.00
2019-02-02T05:45:16.290Z,100.00
2019-02-02T05:48:21.534Z,100.00
2019-02-02T05:51:26.736Z,100.00
2019-02-02T05:54:31.911Z,100.00
2019-02-02T05:57:37.072Z,100.00
2019-02-02T06:01:00.867Z,100.00
2019-02-02T06:04:06.072Z,100.00
2019-02-02T06:07:11.226Z,100.00
2019-02-02T06:10:16.999Z,100.00
2019-02-02T06:13:22.208Z,100.00
2019-02-02T06:16:27.383Z,100.00
2019-02-02T06:19:32.511Z,100.00
2019-02-02T06:22:37.698Z,100.00
2019-02-02T06:25:42.782Z,100.00
2019-02-02T06:28:47.967Z,100.00
2019-02-02T06:31:53.138Z,100.00
2019-02-02T06:34:58.243Z,100.00
2019-02-02T06:38:03.364Z,100.00
2019-02-02T06:41:08.482Z,99.73
2019-02-02T06:44:13.727Z,99.97
2019-02-02T06:47:20.555Z,100.00
2019-02-02T06:50:25.883Z,100.00
2019-02-02T06:53:31.067Z,100.00
2019-02-02T06:56:36.216Z,100.00
2019-02-02T06:59:41.369Z,100.00
2019-02-02T07:02:46.627Z,100.00
2019-02-02T07:05:51.802Z,100.00
2019-02-02T07:08:59.948Z,100.00
2019-02-02T07:12:05.106Z,100.00
2019-02-02T07:15:12.000Z,100.00
2019-02-02T07:18:17.132Z,100.00
2019-02-02T07:21:22.250Z,100.00
2019-02-02T07:24:27.390Z,100.00
2019-02-02T07:27:32.542Z,100.00
2019-02-02T07:30:37.668Z,99.85
2019-02-02T07:33:42.848Z,99.49
2019-02-02T07:36:47.957Z,99.58
2019-02-02T07:39:53.165Z,100.00
2019-02-02T07:42:58.277Z,100.00
2019-02-02T07:46:13.869Z,100.00
2019-02-02T07:49:10.287Z,99.88
2019-02-02T07:52:15.473Z,100.00
2019-02-02T07:55:20.812Z,99.80
2019-02-02T07:58:25.914Z,99.46
2019-02-02T08:01:31.103Z,99.50
2019-02-02T08:04:36.278Z,99.16
2019-02-02T08:07:41.444Z,99.33
2019-02-02T08:10:46.590Z,99.44
2019-02-02T08:13:51.720Z,99.58
2019-02-02T08:16:56.919Z,99.37
2019-02-02T08:20:02.054Z,99.31
2019-02-02T08:23:07.202Z,99.55
2019-02-02T08:26:12.433Z,99.67
2019-02-02T08:29:17.550Z,99.67
2019-02-02T08:32:22.671Z,99.76
2019-02-02T08:35:27.876Z,99.82
2019-02-02T08:38:32.976Z,99.70
2019-02-02T08:41:38.111Z,99.69
2019-02-02T08:44:43.225Z,99.42
2019-02-02T08:47:48.376Z,98.63
2019-02-02T08:50:53.594Z,98.33
2019-02-02T08:53:58.744Z,98.57
2019-02-02T08:57:03.869Z,98.94
2019-02-02T09:00:12.771Z,99.18
2019-02-02T09:03:17.877Z,99.23
2019-02-02T09:06:23.101Z,99.33
2019-02-02T09:09:28.241Z,99.14
2019-02-02T09:12:33.516Z,99.19
2019-02-02T09:15:38.621Z,99.13
2019-02-02T09:18:43.790Z,99.01
2019-02-02T09:21:48.914Z,98.82
2019-02-02T09:24:54.020Z,98.55
2019-02-02T09:27:59.135Z,97.84
2019-02-02T09:31:15.563Z,98.33
2019-02-02T09:34:11.981Z,98.61
2019-02-02T09:37:17.108Z,98.50
2019-02-02T09:40:25.478Z,98.25
2019-02-02T09:43:29.424Z,98.09
2019-02-02T09:46:34.558Z,97.48
2019-02-02T09:49:39.765Z,97.13
2019-02-02T09:52:44.929Z,95.18
2019-02-02T09:55:50.184Z,94.50
2019-02-02T09:58:55.323Z,94.44
2019-02-02T10:02:00.491Z,94.23
2019-02-02T10:05:06.408Z,94.80
2019-02-02T10:08:11.563Z,95.22
2019-02-02T10:11:16.824Z,95.09
2019-02-02T10:14:21.931Z,94.93
2019-02-02T10:17:27.059Z,94.36
2019-02-02T10:20:32.302Z,93.70
2019-02-02T10:23:37.507Z,92.62
2019-02-02T10:26:42.618Z,92.52
2019-02-02T10:29:47.808Z,92.94
2019-02-02T10:32:52.984Z,92.49
2019-02-02T10:35:58.173Z,92.93
2019-02-02T10:39:04.616Z,93.18
2019-02-02T10:42:10.861Z,91.47
2019-02-02T10:45:16.107Z,90.50
2019-02-02T10:48:22.458Z,90.94
2019-02-02T10:51:27.623Z,90.94
2019-02-02T10:54:32.897Z,91.37
2019-02-02T10:57:38.133Z,92.97
2019-02-02T11:00:43.262Z,93.45
2019-02-02T11:03:48.399Z,94.17
2019-02-02T11:06:53.525Z,94.05
2019-02-02T11:09:58.731Z,94.22
2019-02-02T11:13:03.988Z,94.06
2019-02-02T11:16:09.266Z,91.34
2019-02-02T11:19:14.599Z,90.81
2019-02-02T11:22:19.757Z,90.08
2019-02-02T11:25:25.128Z,90.37
2019-02-02T11:28:30.428Z,89.38
2019-02-02T11:31:35.512Z,89.49
2019-02-02T11:34:40.765Z,89.42
2019-02-02T11:37:46.923Z,88.89
2019-02-02T11:40:52.083Z,88.90
2019-02-02T11:43:57.251Z,88.89
2019-02-02T11:47:02.430Z,88.31
2019-02-02T11:50:08.878Z,88.01
2019-02-02T11:53:14.044Z,88.30
2019-02-02T11:56:19.205Z,87.67
2019-02-02T11:59:24.346Z,87.30
2019-02-02T12:02:29.476Z,84.72
2019-02-02T12:05:34.687Z,84.07
2019-02-02T12:08:40.906Z,84.55
2019-02-02T12:11:46.121Z,85.04
2019-02-02T12:14:51.391Z,86.59
2019-02-02T12:17:56.735Z,87.92
2019-02-02T12:21:01.918Z,88.72
2019-02-02T12:24:14.382Z,88.82
2019-02-02T12:27:13.996Z,89.62
2019-02-02T12:30:27.193Z,88.93
2019-02-02T12:33:32.422Z,89.41
2019-02-02T12:36:37.570Z,89.42
2019-02-02T12:39:42.735Z,89.58
2019-02-02T12:42:47.920Z,88.54
2019-02-02T12:45:54.245Z,88.43
2019-02-02T12:48:59.325Z,87.68
2019-02-02T12:52:04.565Z,87.86
2019-02-02T12:55:10.234Z,87.93
2019-02-02T12:58:15.478Z,88.11
2019-02-02T13:01:20.632Z,86.83
2019-02-02T13:04:25.826Z,84.70
2019-02-02T13:07:31.000Z,81.14
2019-02-02T13:10:36.210Z,80.61
2019-02-02T13:13:42.684Z,81.12
2019-02-02T13:16:50.045Z,80.77
2019-02-02T13:19:54.826Z,80.22
2019-02-02T13:22:59.997Z,79.31
2019-02-02T13:26:05.936Z,80.93
2019-02-02T13:29:11.262Z,83.34
2019-02-02T13:32:16.419Z,85.09
2019-02-02T13:35:21.895Z,86.00
2019-02-02T13:38:27.091Z,87.12
2019-02-02T13:41:32.258Z,86.98
2019-02-02T13:44:37.522Z,86.18
2019-02-02T13:47:42.674Z,85.76
2019-02-02T13:50:47.848Z,85.91
2019-02-02T13:53:53.129Z,85.24
2019-02-02T13:56:58.274Z,84.92
2019-02-02T14:00:03.525Z,85.80
2019-02-02T14:03:10.259Z,86.77
2019-02-02T14:06:15.398Z,84.17
2019-02-02T14:09:20.520Z,85.76
2019-02-02T14:12:25.679Z,88.02
2019-02-02T14:15:30.924Z,88.96
2019-02-02T14:18:36.124Z,90.00
2019-02-02T14:21:41.361Z,90.70
2019-02-02T14:24:46.497Z,92.04
2019-02-02T14:27:51.622Z,91.84
2019-02-02T14:30:56.779Z,92.06
2019-02-02T14:34:01.902Z,92.47
2019-02-02T14:37:07.054Z,92.31
2019-02-02T14:40:13.200Z,92.62
2019-02-02T14:43:18.322Z,92.11
2019-02-02T14:46:23.459Z,91.70
2019-02-02T14:49:28.643Z,92.52
2019-02-02T14:52:33.795Z,93.28
2019-02-02T14:55:38.967Z,93.68
2019-02-02T14:58:44.152Z,92.85
2019-02-02T15:01:49.293Z,92.08
2019-02-02T15:04:54.406Z,92.31
2019-02-02T15:07:59.522Z,93.33
2019-02-02T15:11:04.686Z,93.74
2019-02-02T15:14:09.812Z,93.42
2019-02-02T15:17:14.987Z,93.09
2019-02-02T15:20:25.878Z,92.96
2019-02-02T15:23:31.020Z,92.83
2019-02-02T15:26:36.153Z,93.67
2019-02-02T15:29:41.283Z,94.50
2019-02-02T15:32:46.480Z,94.72
2019-02-02T15:35:51.606Z,94.99
2019-02-02T15:38:56.800Z,94.96
2019-02-02T15:42:01.897Z,93.39
2019-02-02T15:45:08.348Z,93.56
2019-02-02T15:48:13.470Z,93.76
2019-02-02T15:51:18.642Z,94.90
2019-02-02T15:54:23.822Z,95.51
2019-02-02T15:57:28.949Z,95.35
2019-02-02T16:00:35.991Z,94.84
2019-02-02T16:03:49.361Z,94.99
2019-02-02T16:06:48.017Z,95.47
2019-02-02T16:09:53.158Z,95.50
2019-02-02T16:12:58.257Z,95.20
2019-02-02T16:16:03.416Z,95.12
2019-02-02T16:19:08.631Z,95.17
2019-02-02T16:22:13.754Z,95.94
2019-02-02T16:25:18.883Z,96.80
2019-02-02T16:28:24.026Z,97.06
2019-02-02T16:31:29.295Z,97.39
2019-02-02T16:34:34.540Z,97.73
2019-02-02T16:37:39.714Z,98.00
2019-02-02T16:40:44.911Z,98.05
2019-02-02T16:43:50.088Z,97.87
2019-02-02T16:46:55.219Z,97.32
2019-02-02T16:50:00.354Z,97.18
2019-02-02T16:53:05.794Z,97.13
2019-02-02T16:56:10.943Z,97.30
2019-02-02T16:59:16.254Z,97.49
2019-02-02T17:02:21.379Z,97.66
2019-02-02T17:05:26.643Z,97.49
2019-02-02T17:08:31.862Z,97.60
2019-02-02T17:11:37.005Z,98.24
2019-02-02T17:14:42.294Z,98.67
2019-02-02T17:17:47.449Z,98.83
2019-02-02T17:20:52.563Z,98.41
2019-02-02T17:24:00.028Z,98.47
2019-02-02T17:27:05.490Z,98.58
2019-02-02T17:30:13.535Z,98.71
2019-02-02T17:33:18.814Z,98.08
2019-02-02T17:36:23.961Z,97.63
2019-02-02T17:39:29.136Z,97.68
2019-02-02T17:42:34.307Z,98.03
2019-02-02T17:45:39.520Z,96.98
2019-02-02T17:48:44.857Z,97.36
2019-02-02T17:51:50.091Z,97.37
2019-02-02T17:54:55.241Z,97.77
2019-02-02T17:58:00.431Z,98.30
2019-02-02T18:01:05.710Z,98.11
2019-02-02T18:04:10.938Z,97.93
2019-02-02T18:07:16.093Z,97.95
2019-02-02T18:10:21.261Z,97.87
2019-02-02T18:13:26.396Z,98.47
2019-02-02T18:16:31.687Z,98.84
2019-02-02T18:19:36.829Z,98.89
2019-02-02T18:22:42.278Z,99.06
2019-02-02T18:25:47.420Z,99.19
2019-02-02T18:28:54.044Z,98.54
2019-02-02T18:31:59.284Z,98.69
2019-02-02T18:35:05.074Z,98.23
2019-02-02T18:38:10.271Z,97.48
2019-02-02T18:41:15.482Z,97.19
2019-02-02T18:44:20.628Z,97.31
2019-02-02T18:47:25.845Z,97.63
2019-02-02T18:50:31.084Z,98.15
2019-02-02T18:53:36.423Z,98.25
2019-02-02T18:56:41.577Z,98.90
2019-02-02T18:59:46.749Z,99.12
2019-02-02T19:02:51.883Z,99.54
2019-02-02T19:05:57.060Z,99.78
2019-02-02T19:09:02.360Z,100.00
2019-02-02T19:12:09.130Z,100.00
2019-02-02T19:15:14.530Z,100.00
2019-02-02T19:18:22.799Z,100.00
2019-02-02T19:21:28.079Z,100.00
2019-02-02T19:24:33.229Z,100.00
2019-02-02T19:27:38.445Z,100.00
2019-02-02T19:30:43.692Z,100.00
2019-02-02T19:33:48.895Z,100.00
2019-02-02T19:36:54.111Z,100.00
2019-02-02T19:39:59.281Z,100.00
2019-02-02T19:43:04.657Z,100.00
2019-02-02T19:46:09.962Z,100.00
2019-02-02T19:49:15.154Z,100.00
2019-02-02T19:52:20.305Z,100.00
2019-02-02T19:55:25.455Z,100.00
2019-02-02T19:58:30.668Z,100.00
2019-02-02T20:01:35.826Z,100.00
2019-02-02T20:04:41.166Z,100.00
2019-02-02T20:07:46.369Z,100.00
2019-02-02T20:10:51.509Z,99.54
2019-02-02T20:13:56.745Z,98.90
2019-02-02T20:17:01.976Z,98.72
2019-02-02T20:20:09.667Z,98.80
2019-02-02T20:23:14.889Z,98.96
2019-02-02T20:26:20.168Z,99.07
2019-02-02T20:29:25.385Z,99.21
2019-02-02T20:32:30.514Z,99.51
2019-02-02T20:35:41.978Z,99.83
2019-02-02T20:38:42.649Z,99.76
2019-02-02T20:41:47.840Z,99.71
2019-02-02T20:44:52.976Z,99.49
2019-02-02T20:47:58.134Z,99.69
2019-02-02T20:51:04.326Z,99.78
2019-02-02T20:54:09.571Z,99.79
2019-02-02T20:57:14.703Z,99.58
2019-02-02T21:00:22.055Z,99.41
2019-02-02T21:03:27.345Z,99.23
2019-02-02T21:06:32.500Z,98.93
2019-02-02T21:09:37.773Z,98.89
2019-02-02T21:12:42.938Z,99.20
2019-02-02T21:15:48.149Z,99.30
2019-02-02T21:18:53.762Z,99.61
2019-02-02T21:21:58.994Z,99.72
2019-02-02T21:25:04.385Z,99.69
2019-02-02T21:28:15.190Z,99.71
2019-02-02T21:31:20.553Z,99.68
2019-02-02T21:34:25.730Z,99.56
2019-02-02T21:37:30.863Z,99.50
2019-02-02T21:40:36.504Z,99.45
2019-02-02T21:43:41.947Z,99.43
2019-02-02T21:46:47.081Z,99.45
2019-02-02T21:49:53.335Z,99.32
2019-02-02T21:52:58.516Z,99.19
2019-02-02T21:56:03.755Z,99.12
2019-02-02T21:59:08.873Z,99.12
2019-02-02T22:02:14.075Z,99.26
2019-02-02T22:05:19.234Z,98.30
2019-02-02T22:08:24.503Z,98.46
2019-02-02T22:11:29.695Z,98.74
2019-02-02T22:14:34.857Z,98.68
2019-02-02T22:17:40.082Z,98.40
2019-02-02T22:20:45.282Z,98.45
2019-02-02T22:23:50.631Z,98.36
2019-02-02T22:26:55.843Z,98.17
2019-02-02T22:30:01.033Z,97.94
2019-02-02T22:33:08.013Z,98.06
2019-02-02T22:36:13.191Z,98.01
2019-02-02T22:39:18.465Z,98.15
2019-02-02T22:42:23.629Z,98.25
2019-02-02T22:45:28.748Z,98.72
2019-02-02T22:48:33.932Z,98.85
2019-02-02T22:51:39.028Z,99.20
2019-02-02T22:54:44.233Z,99.62
2019-02-02T22:57:49.374Z,99.38
2019-02-02T23:01:12.279Z,99.29
2019-02-02T23:05:04.311Z,99.35
2019-02-02T23:08:27.201Z,99.52
2019-02-02T23:11:46.343Z,99.93
2019-02-02T23:15:21.759Z,99.54
2019-02-02T23:18:26.994Z,99.51
2019-02-02T23:21:32.526Z,99.48
2019-02-02T23:24:37.674Z,99.57
2019-02-02T23:27:42.874Z,99.69
2019-02-02T23:30:47.968Z,99.81
2019-02-02T23:33:53.110Z,99.88
2019-02-02T23:36:58.303Z,100.00
2019-02-02T23:40:03.546Z,100.00
2019-02-02T23:43:08.814Z,99.91
2019-02-02T23:46:13.949Z,99.84
2019-02-02T23:49:19.073Z,99.82
2019-02-02T23:52:24.281Z,99.78
2019-02-02T23:55:29.471Z,99.79
2019-02-02T23:58:34.579Z,99.74
